Time;durP1;ratioP1;P1;durP2;ratioP2;P2;SDS_P1;SDS_P2;PMS_P1;PMS_P2;Temp;Humidity;BMP_temperature;BMP_pressure;BME280_temperature;BME280_humidity;BME280_pressure;Samples;Min_cycle;Max_cycle;Signal;HPM_P1;HPM_P2
2023/07/09 00:01:56;;;;;;;8.68;7.80;;;22.40;99.90;;;;;;6100675;23;20068;-71
2023/07/09 00:04:22;;;;;;;10.35;7.93;;;22.40;99.90;;;;;;6100107;23;20022;-71
2023/07/09 00:06:48;;;;;;;10.15;8.40;;;22.40;99.90;;;;;;6101067;23;20026;-74
2023/07/09 00:09:16;;;;;;;9.90;8.00;;;22.30;99.90;;;;;;6125798;23;20121;-72
2023/07/09 00:11:43;;;;;;;10.70;8.35;;;22.30;99.90;;;;;;6127427;23;20013;-71
2023/07/09 00:14:10;;;;;;;9.85;7.97;;;22.30;99.90;;;;;;6100901;23;20101;-71
2023/07/09 00:16:38;;;;;;;10.10;8.98;;;22.20;99.90;;;;;;6074805;23;20025;-71
2023/07/09 00:19:05;;;;;;;11.13;8.90;;;22.20;99.90;;;;;;6099920;23;20276;-71
2023/07/09 00:21:33;;;;;;;12.82;8.57;;;22.20;99.90;;;;;;6099982;23;20076;-71
2023/07/09 00:24:04;;;;;;;12.52;8.55;;;22.10;99.90;;;;;;6076954;23;20029;-71
2023/07/09 00:26:32;;;;;;;9.43;8.52;;;22.10;99.90;;;;;;6124450;23;20126;-71
2023/07/09 00:28:58;;;;;;;13.65;8.13;;;22.00;99.90;;;;;;6100866;23;20022;-71
2023/07/09 00:31:24;;;;;;;10.05;8.18;;;21.90;99.90;;;;;;6100682;23;20022;-71
2023/07/09 00:33:50;;;;;;;9.88;8.15;;;21.90;99.90;;;;;;6126191;23;20025;-71
2023/07/09 00:36:22;;;;;;;9.32;8.32;;;21.90;99.90;;;;;;6099830;23;20042;-71
2023/07/09 00:38:48;;;;;;;10.18;7.93;;;21.90;99.90;;;;;;6098959;23;20045;-71
2023/07/09 00:41:17;;;;;;;11.70;8.70;;;21.80;99.90;;;;;;6127361;23;20049;-71
2023/07/09 00:43:45;;;;;;;9.23;7.60;;;21.70;99.90;;;;;;6099596;23;20073;-71
2023/07/09 00:46:19;;;;;;;9.95;8.07;;;21.70;99.90;;;;;;6076101;23;20018;-71
2023/07/09 00:48:57;;;;;;;9.77;8.48;;;21.60;99.90;;;;;;6100028;23;20049;-71
2023/07/09 00:51:25;;;;;;;8.88;7.97;;;21.50;99.90;;;;;;6125915;23;20026;-71
2023/07/09 00:53:58;;;;;;;9.18;8.05;;;21.50;99.90;;;;;;6100798;23;20024;-71
2023/07/09 00:56:37;;;;;;;10.32;7.95;;;21.50;99.90;;;;;;6125360;23;20018;-71
2023/07/09 00:59:09;;;;;;;11.68;8.80;;;21.40;99.90;;;;;;6100251;23;20021;-71
2023/07/09 01:01:35;;;;;;;12.68;8.40;;;21.40;99.90;;;;;;6100262;23;20018;-71
2023/07/09 01:04:03;;;;;;;11.20;8.93;;;21.30;99.90;;;;;;6075913;23;20042;-71
2023/07/09 01:06:35;;;;;;;9.93;8.52;;;21.30;99.90;;;;;;6099745;23;20026;-71
2023/07/09 01:09:03;;;;;;;9.88;8.50;;;21.30;99.90;;;;;;6075085;23;20014;-71
2023/07/09 01:11:30;;;;;;;9.10;8.20;;;21.30;99.90;;;;;;6101086;23;20450;-71
2023/07/09 01:14:00;;;;;;;8.88;7.88;;;21.30;99.90;;;;;;6076627;23;20024;-71
2023/07/09 01:16:30;;;;;;;14.60;9.10;;;21.30;99.90;;;;;;6099076;23;20036;-70
2023/07/09 01:18:56;;;;;;;10.40;8.80;;;21.20;99.90;;;;;;6099650;23;20093;-71
2023/07/09 01:21:21;;;;;;;10.52;8.95;;;21.20;99.90;;;;;;6099406;23;20050;-71
2023/07/09 01:23:49;;;;;;;8.82;7.93;;;21.20;99.90;;;;;;6126907;23;20018;-71
2023/07/09 01:26:24;;;;;;;10.05;8.10;;;21.20;99.90;;;;;;6125271;23;20022;-71
2023/07/09 01:28:51;;;;;;;10.15;8.45;;;21.20;99.90;;;;;;6126115;23;20026;-71
2023/07/09 01:31:17;;;;;;;11.85;7.90;;;21.20;99.90;;;;;;6100196;23;20535;-71
2023/07/09 01:33:44;;;;;;;10.30;8.30;;;21.20;99.90;;;;;;6099941;23;20026;-71
2023/07/09 01:36:13;;;;;;;11.20;8.52;;;21.20;99.90;;;;;;6127774;23;20093;-71
2023/07/09 01:38:40;;;;;;;11.80;8.90;;;21.10;99.90;;;;;;6076953;23;20033;-72
2023/07/09 01:41:06;;;;;;;9.98;8.40;;;21.00;99.90;;;;;;6128915;23;20120;-71
2023/07/09 01:43:33;;;;;;;11.98;9.02;;;20.90;99.90;;;;;;6101773;23;20018;-71
2023/07/09 01:45:58;;;;;;;11.50;8.93;;;20.90;99.90;;;;;;6102300;23;20026;-72
2023/07/09 01:48:25;;;;;;;10.43;9.25;;;20.90;99.90;;;;;;6128604;23;20069;-71
2023/07/09 01:50:53;;;;;;;11.35;9.15;;;20.90;99.90;;;;;;6100175;23;20018;-71
2023/07/09 01:53:25;;;;;;;9.73;8.57;;;20.80;99.90;;;;;;6127264;23;20022;-71
2023/07/09 01:55:51;;;;;;;9.05;8.25;;;20.80;99.90;;;;;;6099351;23;20021;-71
2023/07/09 01:58:17;;;;;;;9.57;8.68;;;20.80;99.90;;;;;;6078092;23;20022;-71
2023/07/09 02:00:44;;;;;;;10.02;8.48;;;20.80;99.90;;;;;;6100357;23;20089;-71
2023/07/09 02:03:10;;;;;;;10.32;8.43;;;20.70;99.90;;;;;;6101066;23;20089;-71
2023/07/09 02:05:36;;;;;;;9.73;8.48;;;20.70;99.90;;;;;;6101502;23;20348;-71
2023/07/09 02:08:03;;;;;;;10.43;8.82;;;20.80;99.90;;;;;;6127484;23;20021;-71
2023/07/09 02:10:28;;;;;;;10.18;9.13;;;20.70;99.90;;;;;;6127872;23;20105;-71
2023/07/09 02:12:54;;;;;;;9.63;8.63;;;20.80;99.90;;;;;;6101136;23;20025;-71
2023/07/09 02:15:20;;;;;;;10.60;8.98;;;20.70;99.90;;;;;;6128987;23;20022;-71
2023/07/09 02:17:46;;;;;;;10.55;8.88;;;20.80;99.90;;;;;;6101404;23;20029;-71
2023/07/09 02:20:13;;;;;;;12.15;8.98;;;20.70;99.90;;;;;;6101586;23;20061;-71
2023/07/09 02:22:40;;;;;;;10.43;8.60;;;20.70;99.90;;;;;;6101985;23;20398;-71
2023/07/09 02:25:07;;;;;;;9.48;8.50;;;20.70;99.90;;;;;;6101467;23;20022;-72
2023/07/09 02:27:35;;;;;;;10.45;8.82;;;20.60;99.90;;;;;;6101885;23;20029;-71
2023/07/09 02:30:02;;;;;;;10.02;9.02;;;20.60;99.90;;;;;;6100435;23;20023;-71
2023/07/09 02:32:28;;;;;;;11.50;8.77;;;20.60;99.90;;;;;;6077708;23;20029;-71
2023/07/09 02:34:54;;;;;;;10.18;8.38;;;20.50;99.90;;;;;;6126680;23;20864;-71
2023/07/09 02:37:22;;;;;;;10.48;8.60;;;20.60;99.90;;;;;;6127123;23;20026;-71
2023/07/09 02:39:48;;;;;;;11.00;9.30;;;20.50;99.90;;;;;;6126871;23;20045;-71
2023/07/09 02:42:16;;;;;;;11.15;9.20;;;20.50;99.90;;;;;;6100346;23;20026;-71
2023/07/09 02:44:42;;;;;;;11.25;9.00;;;20.50;99.90;;;;;;6101001;23;20029;-71
2023/07/09 02:47:08;;;;;;;10.98;9.65;;;20.40;99.90;;;;;;6100149;23;20029;-71
2023/07/09 02:49:34;;;;;;;9.98;8.98;;;20.40;99.90;;;;;;6077463;23;20030;-71
2023/07/09 02:52:00;;;;;;;9.70;8.73;;;20.40;99.90;;;;;;6100606;23;20034;-71
2023/07/09 02:54:26;;;;;;;13.13;9.55;;;20.40;99.90;;;;;;6101931;23;20017;-71
2023/07/09 02:56:52;;;;;;;10.55;9.10;;;20.30;99.90;;;;;;6100879;23;20032;-71
2023/07/09 02:59:18;;;;;;;10.05;9.05;;;20.30;99.90;;;;;;6076621;23;20403;-71
2023/07/09 03:01:44;;;;;;;10.25;9.15;;;20.30;99.90;;;;;;6100963;23;20100;-71
2023/07/09 03:04:09;;;;;;;11.00;9.50;;;20.20;99.90;;;;;;6126587;23;20029;-71
2023/07/09 03:06:36;;;;;;;10.88;9.27;;;20.10;99.90;;;;;;6128030;23;20022;-71
2023/07/09 03:09:04;;;;;;;10.43;9.32;;;20.10;99.90;;;;;;6100711;23;20018;-70
2023/07/09 03:11:31;;;;;;;10.50;9.40;;;20.00;99.90;;;;;;6128661;23;20649;-70
2023/07/09 03:13:58;;;;;;;11.10;9.93;;;20.00;99.90;;;;;;6101160;23;20018;-71
2023/07/09 03:16:30;;;;;;;12.68;10.07;;;20.00;99.90;;;;;;6100779;23;20022;-71
2023/07/09 03:18:56;;;;;;;10.05;9.07;;;19.90;99.90;;;;;;6100427;23;20033;-71
2023/07/09 03:21:23;;;;;;;11.40;9.77;;;19.90;99.90;;;;;;6126346;23;20013;-71
2023/07/09 03:23:48;;;;;;;11.02;9.93;;;19.80;99.90;;;;;;6077531;23;20115;-71
2023/07/09 03:26:14;;;;;;;11.43;10.15;;;19.80;99.90;;;;;;6098902;23;20018;-70
2023/07/09 03:28:41;;;;;;;11.45;9.60;;;19.80;99.90;;;;;;6100442;23;20052;-70
2023/07/09 03:31:06;;;;;;;11.15;9.63;;;19.80;99.90;;;;;;6052381;23;20045;-71
2023/07/09 03:33:32;;;;;;;10.75;9.73;;;19.80;99.90;;;;;;6100726;23;20073;-71
2023/07/09 03:35:58;;;;;;;11.05;9.85;;;19.80;99.90;;;;;;6100041;23;20021;-71
2023/07/09 03:38:24;;;;;;;11.02;9.93;;;19.80;99.90;;;;;;6121920;23;20026;-71
2023/07/09 03:40:54;;;;;;;11.20;10.05;;;19.80;99.90;;;;;;6125755;23;20237;-70
2023/07/09 03:43:21;;;;;;;11.20;10.02;;;19.80;99.90;;;;;;6124176;23;20046;-71
2023/07/09 03:45:47;;;;;;;10.95;9.68;;;19.80;99.90;;;;;;6125690;23;20628;-71
2023/07/09 03:48:15;;;;;;;10.55;9.45;;;19.80;99.90;;;;;;6127030;23;20022;-71
2023/07/09 03:50:43;;;;;;;11.40;9.68;;;19.90;99.90;;;;;;6124214;23;20029;-71
2023/07/09 03:53:09;;;;;;;11.20;9.70;;;19.90;99.90;;;;;;6124590;23;20363;-71
2023/07/09 03:55:34;;;;;;;11.43;10.35;;;19.90;99.90;;;;;;6123540;23;20079;-71
2023/07/09 03:58:02;;;;;;;11.02;9.85;;;19.90;99.90;;;;;;6123694;23;20089;-71
2023/07/09 04:00:28;;;;;;;12.93;10.07;;;19.90;99.90;;;;;;6076559;23;20360;-71
2023/07/09 04:02:56;;;;;;;12.25;10.77;;;19.90;99.90;;;;;;6099201;23;20334;-70
2023/07/09 04:05:26;;;;;;;10.98;9.90;;;19.90;99.90;;;;;;6126094;23;20025;-71
2023/07/09 04:07:51;;;;;;;11.25;9.88;;;20.00;99.90;;;;;;6124905;23;20086;-70
2023/07/09 04:10:18;;;;;;;11.95;9.50;;;20.10;99.90;;;;;;6124548;23;20014;-71
2023/07/09 04:12:44;;;;;;;10.88;9.55;;;20.10;99.90;;;;;;6125805;23;20089;-71
2023/07/09 04:15:12;;;;;;;10.70;9.52;;;20.10;99.90;;;;;;6125601;23;20269;-72
2023/07/09 04:17:39;;;;;;;10.45;8.93;;;20.10;99.90;;;;;;6099915;23;20028;-71
2023/07/09 04:20:05;;;;;;;11.02;9.50;;;20.20;99.90;;;;;;6126821;23;20025;-71
2023/07/09 04:22:32;;;;;;;12.85;9.73;;;20.20;99.90;;;;;;6100125;23;20057;-71
2023/07/09 04:24:58;;;;;;;11.30;9.50;;;20.30;99.90;;;;;;6124938;23;20127;-71
2023/07/09 04:27:27;;;;;;;11.13;9.95;;;20.40;99.90;;;;;;6125326;23;20108;-71
2023/07/09 04:29:53;;;;;;;11.40;9.60;;;20.40;99.90;;;;;;6126167;23;20026;-71
2023/07/09 04:32:20;;;;;;;10.48;9.38;;;20.50;99.90;;;;;;6101246;23;20093;-71
2023/07/09 04:34:45;;;;;;;11.15;9.40;;;20.50;99.90;;;;;;6099200;23;20029;-71
2023/07/09 04:37:12;;;;;;;11.40;9.75;;;20.60;99.90;;;;;;6126873;23;20013;-71
2023/07/09 04:39:39;;;;;;;11.68;9.63;;;20.60;99.90;;;;;;6126139;23;20033;-71
2023/07/09 04:42:06;;;;;;;11.13;10.00;;;20.60;99.90;;;;;;6100381;23;20045;-71
2023/07/09 04:44:32;;;;;;;11.05;9.93;;;20.70;99.90;;;;;;6126530;23;20054;-71
2023/07/09 04:46:57;;;;;;;12.38;9.85;;;20.70;99.90;;;;;;6099719;23;20017;-71
2023/07/09 04:49:23;;;;;;;10.45;9.45;;;20.80;99.90;;;;;;6100177;23;20030;-71
2023/07/09 04:51:49;;;;;;;10.75;9.57;;;20.80;99.90;;;;;;6075589;23;20053;-71
2023/07/09 04:54:15;;;;;;;10.98;9.77;;;20.90;99.90;;;;;;6100956;23;20537;-71
2023/07/09 04:56:44;;;;;;;11.60;9.88;;;20.90;99.90;;;;;;6075971;23;20042;-71
2023/07/09 04:59:11;;;;;;;10.30;9.18;;;20.90;99.90;;;;;;6076445;23;20100;-71
2023/07/09 05:01:36;;;;;;;12.50;9.50;;;20.90;99.90;;;;;;6074377;23;20053;-71
2023/07/09 05:04:02;;;;;;;11.00;9.85;;;21.00;99.90;;;;;;6075896;23;20077;-71
2023/07/09 05:06:28;;;;;;;13.15;9.95;;;21.00;99.90;;;;;;6077323;23;20022;-71
2023/07/09 05:08:54;;;;;;;10.32;9.27;;;21.00;99.90;;;;;;6099899;23;20032;-70
2023/07/09 05:11:20;;;;;;;11.02;9.90;;;21.00;99.90;;;;;;6102469;23;20014;-70
2023/07/09 05:13:45;;;;;;;14.38;10.85;;;21.10;99.90;;;;;;6101107;23;20080;-71
2023/07/09 05:16:11;;;;;;;12.98;10.55;;;21.10;99.90;;;;;;6103637;23;20022;-71
2023/07/09 05:18:37;;;;;;;11.32;9.82;;;21.20;99.90;;;;;;6105523;23;20025;-71
2023/07/09 05:21:03;;;;;;;12.57;10.18;;;21.20;99.90;;;;;;6101246;23;20077;-70
2023/07/09 05:23:28;;;;;;;11.70;10.13;;;21.30;99.90;;;;;;6078487;23;20062;-69
2023/07/09 05:25:59;;;;;;;11.70;10.18;;;21.40;99.90;;;;;;6100799;23;20041;-70
2023/07/09 05:28:25;;;;;;;10.57;9.40;;;21.50;99.90;;;;;;6101930;23;20022;-72
2023/07/09 05:30:51;;;;;;;12.10;9.77;;;21.60;99.90;;;;;;6127848;23;20026;-72
2023/07/09 05:33:21;;;;;;;10.13;9.13;;;21.60;99.90;;;;;;6127753;23;20028;-71
2023/07/09 05:35:47;;;;;;;10.57;9.48;;;21.70;99.90;;;;;;6127952;23;20045;-71
2023/07/09 05:38:14;;;;;;;12.20;9.43;;;21.80;99.90;;;;;;6127172;23;20033;-71
2023/07/09 05:40:40;;;;;;;10.85;9.75;;;21.90;99.90;;;;;;6078542;23;20025;-71
2023/07/09 05:43:06;;;;;;;10.27;9.15;;;21.90;99.90;;;;;;6127394;23;20454;-70
2023/07/09 05:45:32;;;;;;;9.82;8.82;;;22.00;99.90;;;;;;6129377;23;20026;-70
2023/07/09 05:47:58;;;;;;;10.23;9.10;;;22.00;99.90;;;;;;6102090;23;20022;-70
2023/07/09 05:50:25;;;;;;;11.13;8.65;;;22.10;99.90;;;;;;6101896;23;20029;-71
2023/07/09 05:52:50;;;;;;;9.77;8.77;;;22.20;99.90;;;;;;6102718;23;20079;-77
2023/07/09 05:55:16;;;;;;;10.57;9.13;;;22.30;99.90;;;;;;6029779;23;20175;-69
2023/07/09 05:57:41;;;;;;;10.15;9.05;;;22.30;99.90;;;;;;6128279;23;20065;-69
2023/07/09 06:00:08;;;;;;;10.25;8.95;;;22.40;99.90;;;;;;6126988;23;20048;-70
2023/07/09 06:02:34;;;;;;;9.45;8.45;;;22.50;99.90;;;;;;6078734;23;20026;-69
2023/07/09 06:04:59;;;;;;;12.30;9.88;;;22.60;99.90;;;;;;6127468;23;20222;-70
2023/07/09 06:07:25;;;;;;;11.60;9.68;;;22.70;99.90;;;;;;6054576;23;20073;-71
2023/07/09 06:09:52;;;;;;;9.80;8.65;;;22.70;99.90;;;;;;6101952;23;20032;-70
2023/07/09 06:12:19;;;;;;;11.32;9.27;;;22.70;99.90;;;;;;6101538;23;20573;-70
2023/07/09 06:14:46;;;;;;;15.52;9.02;;;22.70;99.90;;;;;;6102514;23;20022;-70
2023/07/09 06:17:12;;;;;;;14.68;9.60;;;22.70;99.90;;;;;;6076863;23;20320;-70
2023/07/09 06:19:39;;;;;;;13.55;10.30;;;22.80;99.90;;;;;;6102639;23;20033;-70
2023/07/09 06:22:04;;;;;;;14.27;10.82;;;22.90;99.90;;;;;;6127051;23;20018;-70
2023/07/09 06:24:30;;;;;;;14.77;11.15;;;23.00;99.90;;;;;;6127869;23;20032;-71
2023/07/09 06:26:56;;;;;;;16.02;11.73;;;23.10;99.90;;;;;;6101057;23;20018;-71
2023/07/09 06:29:22;;;;;;;17.88;12.45;;;23.20;99.90;;;;;;6100801;23;20026;-71
2023/07/09 06:31:48;;;;;;;14.70;11.98;;;23.30;99.90;;;;;;6127042;23;20018;-70
2023/07/09 06:34:13;;;;;;;18.20;13.30;;;23.40;99.90;;;;;;6127750;23;20117;-71
2023/07/09 06:36:39;;;;;;;18.63;12.90;;;23.40;99.90;;;;;;6128441;23;20022;-71
2023/07/09 06:39:05;;;;;;;17.75;13.02;;;23.50;99.90;;;;;;6099990;23;20037;-72
2023/07/09 06:41:32;;;;;;;16.92;13.00;;;23.50;99.90;;;;;;6128017;23;20053;-70
2023/07/09 06:43:58;;;;;;;16.73;12.45;;;23.60;99.90;;;;;;6101190;23;20028;-71
2023/07/09 06:46:24;;;;;;;16.42;12.18;;;23.70;99.90;;;;;;6075915;23;20057;-71
2023/07/09 06:48:49;;;;;;;17.63;12.10;;;23.90;99.90;;;;;;6076828;23;20025;-71
2023/07/09 06:51:16;;;;;;;15.57;12.10;;;24.00;99.90;;;;;;6100688;23;20496;-71
2023/07/09 06:53:44;;;;;;;13.38;10.57;;;24.10;99.90;;;;;;6077286;23;20329;-71
2023/07/09 06:56:09;;;;;;;15.32;12.27;;;24.20;99.90;;;;;;6100718;23;20026;-71
2023/07/09 06:58:36;;;;;;;16.23;11.65;;;24.40;99.90;;;;;;6127212;23;20026;-71
2023/07/09 07:01:04;;;;;;;14.57;11.95;;;24.50;99.90;;;;;;6126792;23;20356;-71
2023/07/09 07:03:32;;;;;;;14.75;11.25;;;24.60;99.90;;;;;;6126912;23;20029;-71
2023/07/09 07:05:58;;;;;;;13.40;11.63;;;24.60;99.90;;;;;;6127185;23;20097;-71
2023/07/09 07:08:25;;;;;;;15.77;11.45;;;24.70;99.90;;;;;;6100608;23;20449;-71
2023/07/09 07:11:02;;;;;;;17.30;11.95;;;24.70;99.90;;;;;;6077058;23;20022;-71
2023/07/09 07:13:29;;;;;;;13.82;11.07;;;24.70;99.90;;;;;;6127253;23;20014;-71
2023/07/09 07:15:55;;;;;;;12.48;11.15;;;24.80;99.90;;;;;;6127320;23;20010;-71
2023/07/09 07:18:20;;;;;;;12.20;10.10;;;24.90;99.90;;;;;;6125670;23;20697;-71
2023/07/09 07:20:46;;;;;;;20.30;12.05;;;25.00;99.90;;;;;;6100383;23;20220;-71
2023/07/09 07:23:12;;;;;;;15.13;11.88;;;25.20;99.90;;;;;;6076529;23;20018;-71
2023/07/09 07:25:38;;;;;;;14.93;10.95;;;25.30;99.90;;;;;;6126155;23;20053;-71
2023/07/09 07:28:04;;;;;;;12.27;10.40;;;25.50;99.90;;;;;;6101465;23;20026;-71
2023/07/09 07:30:30;;;;;;;12.18;10.07;;;25.60;99.90;;;;;;6099595;23;20022;-71
2023/07/09 07:32:55;;;;;;;15.05;11.18;;;25.70;99.90;;;;;;6076717;23;20532;-71
2023/07/09 07:35:21;;;;;;;12.43;10.38;;;25.70;99.90;;;;;;6100711;23;20014;-71
2023/07/09 07:37:47;;;;;;;13.93;10.65;;;25.80;99.90;;;;;;6125077;23;20026;-70
2023/07/09 07:40:13;;;;;;;14.88;10.45;;;25.90;99.90;;;;;;6052200;23;20033;-70
2023/07/09 07:42:38;;;;;;;10.65;9.38;;;26.00;99.90;;;;;;6126157;23;20030;-71
2023/07/09 07:45:05;;;;;;;11.20;9.25;;;26.10;99.90;;;;;;6127002;23;20044;-71
2023/07/09 07:47:30;;;;;;;13.88;10.35;;;26.10;99.90;;;;;;6125947;23;20440;-71
2023/07/09 07:49:57;;;;;;;10.70;8.73;;;26.30;99.90;;;;;;6126612;23;20397;-70
2023/07/09 07:52:24;;;;;;;11.73;10.05;;;26.40;99.90;;;;;;6126191;23;20028;-71
2023/07/09 07:54:50;;;;;;;11.20;9.35;;;26.50;99.90;;;;;;6100032;23;20775;-72
2023/07/09 07:57:16;;;;;;;11.05;9.93;;;26.50;99.90;;;;;;6100422;23;20026;-71
2023/07/09 07:59:41;;;;;;;12.65;9.93;;;26.60;99.90;;;;;;6126148;23;20018;-71
2023/07/09 08:02:12;;;;;;;11.32;9.23;;;26.70;99.90;;;;;;6127193;23;20325;-71
2023/07/09 08:04:40;;;;;;;11.98;10.35;;;26.70;99.90;;;;;;6125476;23;20317;-71
2023/07/09 08:07:07;;;;;;;13.20;10.05;;;26.80;99.90;;;;;;6126695;23;20325;-72
2023/07/09 08:09:34;;;;;;;10.20;9.13;;;26.90;99.90;;;;;;6126210;23;20077;-70
2023/07/09 08:12:00;;;;;;;10.60;9.25;;;27.00;99.90;;;;;;6124409;23;20026;-71
2023/07/09 08:14:25;;;;;;;16.13;10.57;;;27.00;99.90;;;;;;6125611;23;20022;-70
2023/07/09 08:16:52;;;;;;;12.25;10.05;;;27.10;99.90;;;;;;6075898;23;20069;-71
2023/07/09 08:19:20;;;;;;;14.25;9.30;;;27.20;99.90;;;;;;6099294;23;20657;-71
2023/07/09 08:21:47;;;;;;;12.38;9.95;;;27.30;99.90;;;;;;6123414;23;21060;-71
2023/07/09 08:24:14;;;;;;;13.63;9.15;;;27.40;99.90;;;;;;6099332;23;20395;-71
2023/07/09 08:26:40;;;;;;;11.13;9.77;;;27.50;99.90;;;;;;6099383;23;20097;-71
2023/07/09 08:29:05;;;;;;;11.52;9.63;;;27.50;99.90;;;;;;6099811;23;20029;-71
2023/07/09 08:31:31;;;;;;;11.57;9.40;;;27.60;99.90;;;;;;6126859;23;20071;-71
2023/07/09 08:33:57;;;;;;;15.55;9.75;;;27.70;99.90;;;;;;6075994;23;20101;-71
2023/07/09 08:36:23;;;;;;;10.32;9.30;;;27.80;99.90;;;;;;6127878;23;20030;-71
2023/07/09 08:38:49;;;;;;;12.07;8.60;;;27.90;99.90;;;;;;6113682;23;20025;-71
2023/07/09 08:41:30;;;;;;;11.25;8.75;;;27.90;99.90;;;;;;6080047;23;20033;-71
2023/07/09 08:44:15;;;;;;;9.52;8.15;;;28.00;99.90;;;;;;6126882;23;20078;-71
2023/07/09 08:47:07;;;;;;;10.75;8.10;;;28.00;99.90;;;;;;6126731;23;20018;-71
2023/07/09 08:49:38;;;;;;;11.70;8.57;;;28.10;99.90;;;;;;6127641;23;20100;-71
2023/07/09 08:52:13;;;;;;;13.07;8.52;;;28.20;99.90;;;;;;6126574;23;20041;-71
2023/07/09 08:54:40;;;;;;;11.35;8.45;;;28.30;99.90;;;;;;6100651;23;20029;-71
2023/07/09 08:57:26;;;;;;;12.40;9.57;;;28.40;99.90;;;;;;6126448;23;20025;-71
2023/07/09 09:00:02;;;;;;;11.85;8.90;;;28.60;99.90;;;;;;6075929;23;20026;-71
2023/07/09 09:02:48;;;;;;;10.50;8.10;;;28.70;99.90;;;;;;6077199;23;20036;-71
2023/07/09 09:05:17;;;;;;;9.98;8.45;;;28.70;99.90;;;;;;6076574;23;20034;-71
2023/07/09 09:07:47;;;;;;;11.60;8.38;;;28.80;99.90;;;;;;6100557;23;20085;-71
2023/07/09 09:10:43;;;;;;;10.43;7.45;;;29.00;99.90;;;;;;6127024;23;20069;-71
2023/07/09 09:13:12;;;;;;;11.48;8.73;;;29.10;99.90;;;;;;6026865;23;20050;-70
2023/07/09 09:15:45;;;;;;;10.32;8.93;;;29.20;99.90;;;;;;6127468;23;20244;-71
2023/07/09 09:18:37;;;;;;;9.55;7.50;;;29.20;99.90;;;;;;6126644;23;20386;-72
2023/07/09 09:21:07;;;;;;;;;;;29.40;99.90;;;;;;6100183;23;20087;-71
2023/07/09 09:23:53;;;;;;;9.80;7.50;;;29.40;99.90;;;;;;6077190;23;19921;-71
2023/07/09 09:26:31;;;;;;;7.93;7.13;;;29.50;99.90;;;;;;6100128;23;20030;-71
2023/07/09 09:28:57;;;;;;;10.73;7.88;;;29.60;99.90;;;;;;6126689;23;20048;-71
2023/07/09 09:31:28;;;;;;;11.15;7.20;;;29.70;99.90;;;;;;6076418;23;20061;-71
2023/07/09 09:33:54;;;;;;;8.25;7.38;;;29.90;99.90;;;;;;6125135;23;20068;-71
2023/07/09 09:36:23;;;;;;;8.45;7.10;;;29.90;99.90;;;;;;6125562;23;20508;-73
2023/07/09 09:38:50;;;;;;;10.27;7.13;;;29.90;99.90;;;;;;6097089;23;20040;-75
2023/07/09 09:41:37;;;;;;;8.43;6.38;;;30.00;99.90;;;;;;6098824;23;20022;-72
2023/07/09 09:44:04;;;;;;;7.68;6.45;;;30.10;99.90;;;;;;6124667;23;20814;-71
2023/07/09 09:46:32;;;;;;;7.28;6.57;;;30.20;99.90;;;;;;6124315;23;20018;-72
2023/07/09 09:49:02;;;;;;;9.23;6.38;;;30.20;99.90;;;;;;6123130;23;20029;-71
2023/07/09 09:51:27;;;;;;;12.80;7.03;;;30.30;99.90;;;;;;6095293;23;20025;-71
2023/07/09 09:54:02;;;;;;;10.65;6.82;;;30.40;99.90;;;;;;6074622;23;20026;-71
2023/07/09 09:56:30;;;;;;;8.30;6.90;;;30.50;99.90;;;;;;6076152;23;20073;-71
2023/07/09 09:58:57;;;;;;;8.90;6.75;;;30.60;99.90;;;;;;6127552;23;20053;-71
2023/07/09 10:01:31;;;;;;;10.77;6.57;;;30.60;99.90;;;;;;6100978;23;20022;-71
2023/07/09 10:03:59;;;;;;;6.80;5.75;;;30.70;99.90;;;;;;6101327;23;20586;-69
2023/07/09 10:06:46;;;;;;;7.53;5.35;;;30.70;98.80;;;;;;6102573;23;20049;-71
2023/07/09 10:09:45;;;;;;;9.10;5.85;;;30.80;94.60;;;;;;6126785;23;20032;-72
2023/07/09 10:12:47;;;;;;;7.32;5.45;;;30.90;91.50;;;;;;6127736;23;20559;-71
2023/07/09 10:15:31;;;;;;;7.47;5.40;;;31.00;89.60;;;;;;6058331;23;20415;-71
2023/07/09 10:18:14;;;;;;;6.22;5.50;;;31.00;88.80;;;;;;6127491;23;20026;-71
2023/07/09 10:20:52;;;;;;;7.10;6.00;;;31.10;86.60;;;;;;6076881;23;20025;-71
2023/07/09 10:23:34;;;;;;;9.20;5.50;;;31.10;84.60;;;;;;6127793;23;20068;-71
2023/07/09 10:26:35;;;;;;;7.63;6.13;;;31.20;86.20;;;;;;6127465;23;20028;-71
2023/07/09 10:29:19;;;;;;;8.35;5.80;;;31.30;83.20;;;;;;6094634;23;20022;-71
2023/07/09 10:31:57;;;;;;;6.35;5.68;;;31.30;82.70;;;;;;6077140;23;20021;-71
2023/07/09 10:34:47;;;;;;;8.98;6.38;;;31.30;84.10;;;;;;6126917;23;20021;-71
2023/07/09 10:37:51;;;;;;;7.70;6.45;;;31.50;86.40;;;;;;6128373;23;20026;-71
2023/07/09 10:40:24;;;;;;;7.53;5.50;;;31.70;88.90;;;;;;6119066;23;20469;-71
2023/07/09 10:42:58;;;;;;;6.95;5.38;;;31.70;82.30;;;;;;6125521;23;20050;-71
2023/07/09 10:45:56;;;;;;;7.75;6.38;;;31.80;80.60;;;;;;6128585;23;20079;-71
2023/07/09 10:48:52;;;;;;;7.25;6.05;;;31.80;80.10;;;;;;6124097;23;20030;-71
2023/07/09 10:51:38;;;;;;;8.15;5.97;;;31.90;79.30;;;;;;6124615;23;20079;-71
2023/07/09 10:54:30;;;;;;;7.30;5.90;;;31.90;79.10;;;;;;6126847;23;20496;-71
2023/07/09 10:57:16;;;;;;;8.73;6.25;;;31.90;75.80;;;;;;6104621;23;20028;-71
2023/07/09 10:59:43;;;;;;;7.85;5.50;;;31.80;76.60;;;;;;6126680;23;20491;-71
2023/07/09 11:02:11;;;;;;;9.15;6.05;;;31.90;75.90;;;;;;6101612;23;20025;-71
2023/07/09 11:04:47;;;;;;;8.07;6.13;;;31.90;77.20;;;;;;6124676;23;20080;-70
2023/07/09 11:07:17;;;;;;;9.80;6.32;;;31.80;76.70;;;;;;6127659;23;20340;-71
2023/07/09 11:09:46;;;;;;;8.32;6.70;;;31.80;78.40;;;;;;6102319;23;20053;-71
2023/07/09 11:12:17;;;;;;;8.85;6.15;;;31.90;78.00;;;;;;6101892;23;20026;-72
2023/07/09 11:14:59;;;;;;;6.93;5.93;;;32.00;79.10;;;;;;6127470;23;20026;-69
2023/07/09 11:17:27;;;;;;;8.05;5.38;;;32.20;80.30;;;;;;6103620;23;20025;-69
2023/07/09 11:19:59;;;;;;;7.28;5.63;;;32.20;81.30;;;;;;6126326;23;20058;-68
2023/07/09 11:22:39;;;;;;;6.43;4.97;;;32.40;78.70;;;;;;6126772;23;20026;-69
2023/07/09 11:25:10;;;;;;;7.13;5.50;;;32.40;75.90;;;;;;6125720;23;20132;-70
2023/07/09 11:27:50;;;;;;;7.30;5.23;;;32.40;75.30;;;;;;6128826;23;20022;-70
2023/07/09 11:30:22;;;;;;;8.23;5.40;;;32.40;73.30;;;;;;6127834;23;20033;-71
2023/07/09 11:32:55;;;;;;;9.77;5.15;;;32.50;73.90;;;;;;6128503;23;20026;-70
2023/07/09 11:35:24;;;;;;;6.28;5.07;;;32.60;73.50;;;;;;6127285;23;20403;-71
2023/07/09 11:37:52;;;;;;;6.82;4.93;;;32.60;73.00;;;;;;6124794;23;20022;-71
2023/07/09 11:40:20;;;;;;;7.63;5.43;;;32.60;72.30;;;;;;6125245;23;20046;-71
2023/07/09 11:43:25;;;;;;;9.75;5.80;;;32.60;70.80;;;;;;6126510;23;20026;-71
2023/07/09 11:45:51;;;;;;;10.45;5.97;;;32.70;74.30;;;;;;6101395;23;20026;-71
2023/07/09 11:48:26;;;;;;;10.10;6.93;;;32.70;73.70;;;;;;6125714;23;20101;-71
2023/07/09 11:50:54;;;;;;;6.38;5.78;;;32.80;75.40;;;;;;6124745;23;20056;-71
2023/07/09 11:53:43;;;;;;;8.23;6.20;;;32.80;75.00;;;;;;6127497;23;20036;-71
2023/07/09 11:56:10;;;;;;;6.75;6.10;;;32.90;74.50;;;;;;6125806;23;20053;-71
2023/07/09 11:58:36;;;;;;;8.95;6.07;;;32.90;75.20;;;;;;6127261;23;20089;-71
2023/07/09 12:01:09;;;;;;;9.10;6.72;;;33.00;75.40;;;;;;6125178;23;20022;-71
2023/07/09 12:03:42;;;;;;;7.30;5.80;;;32.90;73.70;;;;;;6099325;23;20029;-71
2023/07/09 12:06:26;;;;;;;7.40;6.03;;;32.90;71.70;;;;;;6127630;23;20026;-71
2023/07/09 12:08:52;;;;;;;7.22;5.90;;;33.00;73.70;;;;;;6100530;23;20025;-71
2023/07/09 12:11:25;;;;;;;10.18;5.95;;;32.90;72.30;;;;;;6126347;23;20022;-71
2023/07/09 12:13:53;;;;;;;7.47;6.50;;;33.00;74.60;;;;;;6127247;23;20132;-71
2023/07/09 12:16:28;;;;;;;6.78;5.97;;;33.10;73.20;;;;;;6124950;23;20058;-71
2023/07/09 12:18:54;;;;;;;8.02;5.97;;;33.20;74.70;;;;;;6126785;23;20093;-71
2023/07/09 12:21:21;;;;;;;9.57;6.40;;;33.20;73.80;;;;;;6124319;23;20017;-71
2023/07/09 12:23:48;;;;;;;8.35;5.80;;;33.20;71.60;;;;;;6101535;23;20075;-71
2023/07/09 12:26:17;;;;;;;8.02;6.20;;;33.10;73.20;;;;;;6125877;23;20032;-71
2023/07/09 12:28:48;;;;;;;7.75;6.15;;;33.30;73.20;;;;;;6124924;23;20069;-70
2023/07/09 12:31:16;;;;;;;6.90;5.80;;;33.20;71.90;;;;;;6125572;23;20026;-71
2023/07/09 12:33:54;;;;;;;7.20;6.25;;;33.30;72.70;;;;;;6124375;23;20017;-71
2023/07/09 12:36:20;;;;;;;6.57;5.85;;;33.40;71.20;;;;;;6127433;23;20014;-71
2023/07/09 12:38:56;;;;;;;7.85;5.97;;;33.50;71.40;;;;;;6124458;23;20093;-70
2023/07/09 12:41:29;;;;;;;7.63;5.82;;;33.50;71.40;;;;;;6102552;23;20026;-69
2023/07/09 12:43:56;;;;;;;8.00;6.00;;;33.50;70.40;;;;;;6126906;23;20329;-71
2023/07/09 12:46:22;;;;;;;8.13;5.97;;;33.60;69.80;;;;;;6100148;23;20022;-71
2023/07/09 12:48:50;;;;;;;7.28;5.43;;;33.70;70.70;;;;;;6126939;23;20010;-71
2023/07/09 12:51:25;;;;;;;8.55;6.20;;;33.70;69.00;;;;;;6052446;23;20424;-71